Time;durP1;ratioP1;P1;durP2;ratioP2;P2;SDS_P1;SDS_P2;PMS_P1;PMS_P2;Temp;Humidity;BMP_temperature;BMP_pressure;BME280_temperature;BME280_humidity;BME280_pressure;Samples;Min_cycle;Max_cycle;Signal;HPM_P1;HPM_P2
2023/02/05 00:01:30;;;;;;;0.40;0.40;;;;;;;-4.16;79.95;101144.44;6306522;28;20044;-71
2023/02/05 00:04:33;;;;;;;0.75;0.45;;;;;;;-4.09;79.95;101148.81;6324650;28;20047;-71
2023/02/05 00:07:36;;;;;;;0.43;0.43;;;;;;;-4.07;79.62;101155.66;6324245;28;20121;-70
2023/02/05 00:10:37;;;;;;;0.80;0.80;;;;;;;-3.97;79.79;101159.22;6306236;28;20040;-70
2023/02/05 00:13:39;;;;;;;0.73;0.73;;;;;;;-3.94;78.77;101171.13;6324436;28;20494;-71
2023/02/05 00:16:40;;;;;;;;;;;;;;;-3.97;78.97;101169.41;6306644;28;20128;-70
2023/02/05 00:19:40;;;;;;;0.30;0.30;;;;;;;-3.99;79.47;101170.22;6324092;28;19920;-72
2023/02/05 00:22:41;;;;;;;1.65;1.25;;;;;;;-4.04;80.19;101175.22;6306045;28;20048;-70
2023/02/05 00:25:42;;;;;;;0.38;0.38;;;;;;;-4.06;79.19;101185.41;6324211;28;20075;-71
2023/02/05 00:28:43;;;;;;;0.20;0.20;;;;;;;-4.00;78.83;101191.44;6323961;28;20420;-71
2023/02/05 00:31:48;;;;;;;0.55;0.52;;;;;;;-4.07;78.66;101185.38;6323730;28;20222;-71
2023/02/05 00:34:51;;;;;;;0.10;0.10;;;;;;;-4.10;78.84;101187.88;6323792;28;20044;-70
2023/02/05 00:37:51;;;;;;;0.30;0.30;;;;;;;-3.95;78.28;101198.34;6323632;28;20128;-70
2023/02/05 00:40:53;;;;;;;1.05;0.63;;;;;;;-3.94;78.61;101201.75;6323779;28;20075;-70
2023/02/05 00:43:53;;;;;;;0.10;0.10;;;;;;;-3.96;78.86;101208.50;6322496;28;20036;-70
2023/02/05 00:46:54;;;;;;;3.00;0.55;;;;;;;-4.00;78.79;101205.03;6323628;28;20043;-70
2023/02/05 00:49:55;;;;;;;0.57;0.57;;;;;;;-4.00;78.75;101205.03;6323466;28;20147;-70
2023/02/05 00:52:56;;;;;;;0.35;0.35;;;;;;;-3.92;79.55;101210.28;6323189;28;20124;-71
2023/02/05 00:55:56;;;;;;;0.40;0.40;;;;;;;-3.92;79.51;101212.81;6305252;28;20036;-71
2023/02/05 00:58:58;;;;;;;0.30;0.30;;;;;;;-3.89;79.52;101207.75;6305040;28;20427;-70
2023/02/05 01:01:59;;;;;;;1.08;0.63;;;;;;;-3.92;79.26;101205.19;6305106;28;20044;-70
2023/02/05 01:05:02;;;;;;;0.35;0.35;;;;;;;-3.98;78.20;101211.03;6304980;28;20450;-71
2023/02/05 01:08:06;;;;;;;1.80;0.63;;;;;;;-4.04;79.58;101193.06;6304844;28;20051;-70
2023/02/05 01:11:09;;;;;;;0.70;0.70;;;;;;;-3.85;79.29;101196.78;6304281;28;20036;-70
2023/02/05 01:14:09;;;;;;;0.20;0.20;;;;;;;-3.80;78.23;101204.53;6304196;28;20048;-70
2023/02/05 01:17:11;;;;;;;0.30;0.30;;;;;;;-3.87;78.59;101204.44;6305143;28;20044;-76
2023/02/05 01:20:13;;;;;;;0.50;0.50;;;;;;;-3.90;78.54;101198.41;6305303;28;20044;-76
2023/02/05 01:23:14;;;;;;;0.40;0.40;;;;;;;-3.83;78.85;101197.66;6305378;28;20036;-75
2023/02/05 01:26:14;;;;;;;1.20;0.65;;;;;;;-3.74;78.16;101190.16;6323458;28;20036;-75
2023/02/05 01:29:16;;;;;;;0.57;0.45;;;;;;;-3.77;77.74;101186.72;6323175;28;20044;-75
2023/02/05 01:32:17;;;;;;;1.95;0.43;;;;;;;-3.55;77.16;101196.41;6305231;28;20371;-75
2023/02/05 01:35:18;;;;;;;2.73;1.47;;;;;;;-3.63;77.07;101185.22;6323279;28;20046;-76
2023/02/05 01:38:21;;;;;;;0.45;0.45;;;;;;;-3.57;76.95;101185.31;6323086;28;20048;-76
2023/02/05 01:41:22;;;;;;;0.65;0.57;;;;;;;-3.53;77.18;101196.44;6305149;28;20089;-75
2023/02/05 01:44:24;;;;;;;0.70;0.70;;;;;;;-3.47;77.14;101197.38;6323015;28;20456;-76
2023/02/05 01:47:24;;;;;;;0.52;0.52;;;;;;;-3.43;75.37;101185.53;6323132;28;20086;-75
2023/02/05 01:50:33;;;;;;;1.17;0.57;;;;;;;-3.35;76.21;101203.50;6304897;28;20040;-76
2023/02/05 01:53:37;;;;;;;0.43;0.43;;;;;;;-3.37;76.36;101202.63;6322788;28;20098;-75
2023/02/05 01:56:48;;;;;;;0.40;0.33;;;;;;;-3.32;75.66;101198.44;6304974;28;20036;-75
2023/02/05 01:59:50;;;;;;;0.77;0.77;;;;;;;-3.32;75.62;101196.72;6322784;28;20044;-75
2023/02/05 02:02:51;;;;;;;0.63;0.63;;;;;;;-3.33;76.07;101191.63;6322731;28;20047;-75
2023/02/05 02:05:56;;;;;;;0.47;0.47;;;;;;;-3.27;75.62;101197.66;6322771;28;20097;-75
2023/02/05 02:08:58;;;;;;;0.20;0.20;;;;;;;-3.30;77.06;101207.81;6296205;28;20300;-75
2023/02/05 02:11:59;;;;;;;0.30;0.30;;;;;;;-3.26;77.10;101194.25;6296506;28;20044;-76
2023/02/05 02:15:04;;;;;;;0.17;0.17;;;;;;;-3.26;76.64;101194.25;6297638;28;20044;-76
2023/02/05 02:21:28;;;;;;;0.45;0.20;;;;;;;-3.22;76.51;101200.28;6297438;28;20124;-76
2023/02/05 02:24:47;;;;;;;0.82;0.50;;;;;;;-3.27;75.64;101196.81;6296176;28;20056;-76
2023/02/05 02:27:59;;;;;;;1.75;1.20;;;;;;;-3.26;76.01;101201.06;6296268;28;20048;-76
2023/02/05 02:31:11;;;;;;;0.43;0.43;;;;;;;-3.13;75.68;101199.53;6297552;28;20052;-76
2023/02/05 02:34:27;;;;;;;0.43;0.43;;;;;;;-3.08;75.37;101197.91;6297512;28;20047;-75
2023/02/05 02:37:48;;;;;;;4.15;0.75;;;;;;;-3.13;75.68;101197.88;6297370;28;20051;-76
2023/02/05 02:40:53;;;;;;;0.35;0.35;;;;;;;-3.10;75.86;101191.94;6297309;28;20044;-76
2023/02/05 02:44:02;;;;;;;0.20;0.20;;;;;;;-3.33;76.50;101187.38;6297407;28;20045;-75
2023/02/05 02:47:11;;;;;;;0.28;0.28;;;;;;;-3.41;76.60;101194.06;6296021;28;20354;-76
2023/02/05 02:50:31;;;;;;;0.50;0.50;;;;;;;-3.39;75.04;101205.16;6295976;28;20048;-75
2023/02/05 02:53:37;;;;;;;0.38;0.30;;;;;;;-3.34;75.46;101211.16;6297196;28;20473;-76
2023/02/05 02:56:39;;;;;;;0.43;0.43;;;;;;;-3.51;76.27;101207.53;6294996;28;20043;-72
2023/02/05 02:59:44;;;;;;;0.93;0.77;;;;;;;-3.48;76.95;101207.56;6295981;28;20055;-70
2023/02/05 03:02:48;;;;;;;1.08;0.45;;;;;;;-3.41;77.08;101216.19;6295061;28;20047;-71
2023/02/05 03:05:52;;;;;;;0.25;0.25;;;;;;;-3.58;76.79;101214.22;6296294;28;20118;-71
2023/02/05 03:09:10;;;;;;;0.63;0.63;;;;;;;-3.63;77.46;101209.88;6299322;28;20102;-70
2023/02/05 03:12:11;;;;;;;1.00;0.90;;;;;;;-3.63;77.57;101213.28;6299399;28;20051;-70
2023/02/05 03:15:12;;;;;;;1.20;1.10;;;;;;;-3.61;78.01;101214.16;6300588;28;20040;-71
2023/02/05 03:18:16;;;;;;;2.35;1.63;;;;;;;-3.62;77.33;101215.03;6300489;28;20044;-70
2023/02/05 03:21:26;;;;;;;0.75;0.75;;;;;;;-3.63;78.46;101222.66;6300324;28;20078;-71
2023/02/05 03:24:30;;;;;;;4.05;0.50;;;;;;;-3.69;77.72;101229.34;6300250;28;20055;-70
2023/02/05 03:27:32;;;;;;;0.80;0.80;;;;;;;-3.78;78.46;101241.97;6299121;28;20353;-71
2023/02/05 03:30:59;;;;;;;2.95;2.00;;;;;;;-3.87;78.48;101245.22;6298754;28;20037;-70
2023/02/05 03:34:18;;;;;;;0.40;0.40;;;;;;;-3.79;77.71;101237.69;6298931;28;20131;-71
2023/02/05 03:37:51;;;;;;;1.25;1.15;;;;;;;-3.88;78.24;101246.03;6299061;28;20041;-70
2023/02/05 03:40:57;;;;;;;;;;;;;;;-3.83;78.10;101251.22;6299210;28;20476;-71
2023/02/05 03:44:18;;;;;;;0.55;0.55;;;;;;;-3.87;77.76;101246.91;6298587;28;19924;-70
2023/02/05 03:47:36;;;;;;;0.50;0.50;;;;;;;-3.86;78.07;101246.94;6298545;28;20036;-71
2023/02/05 03:50:50;;;;;;;0.20;0.20;;;;;;;-3.83;78.09;101251.22;6298585;28;20045;-70
2023/02/05 03:54:09;;;;;;;;;;;;;;;-3.91;78.05;101268.06;6300124;28;20598;-70
2023/02/05 03:57:24;;;;;;;0.98;0.57;;;;;;;-3.90;78.13;101267.25;6298524;28;19963;-70
2023/02/05 04:00:26;;;;;;;0.80;0.75;;;;;;;-3.92;78.01;101269.78;6298258;28;20044;-71
2023/02/05 04:03:27;;;;;;;0.90;0.90;;;;;;;-4.05;78.09;101267.84;6298053;28;20048;-71
2023/02/05 04:06:28;;;;;;;0.30;0.30;;;;;;;-3.98;78.23;101268.81;6298171;28;20119;-71
2023/02/05 04:09:29;;;;;;;0.20;0.20;;;;;;;-3.98;78.45;101262.00;6318686;28;20098;-71
2023/02/05 04:12:30;;;;;;;3.40;0.88;;;;;;;-3.93;78.50;101262.09;6306256;28;20044;-71
2023/02/05 04:15:34;;;;;;;1.08;0.75;;;;;;;-4.00;78.22;101271.31;6324337;28;20067;-70
2023/02/05 04:18:37;;;;;;;2.65;0.88;;;;;;;-4.12;78.32;101278.75;6305929;28;20046;-70
2023/02/05 04:21:38;;;;;;;0.52;0.47;;;;;;;-4.08;78.55;101277.97;6324070;28;20044;-71
2023/02/05 04:24:39;;;;;;;0.20;0.20;;;;;;;-4.16;78.47;101276.97;6305778;28;20044;-70
2023/02/05 04:27:40;;;;;;;1.50;0.90;;;;;;;-4.15;78.48;101276.16;6305700;28;20492;-70
2023/02/05 04:30:40;;;;;;;1.10;0.50;;;;;;;-4.16;77.78;101280.41;6305064;28;20089;-71
2023/02/05 04:33:43;;;;;;;0.95;0.95;;;;;;;-4.16;77.32;101282.06;6323344;28;20464;-70
2023/02/05 04:36:45;;;;;;;1.42;1.38;;;;;;;-4.07;77.21;101287.34;6323658;28;20044;-71
2023/02/05 04:39:46;;;;;;;0.32;0.32;;;;;;;-4.14;77.58;101285.50;6305684;28;20491;-71
2023/02/05 04:42:47;;;;;;;0.65;0.65;;;;;;;-4.15;77.15;101287.22;6305399;28;20040;-70
2023/02/05 04:45:48;;;;;;;1.38;1.00;;;;;;;-4.15;77.96;101291.44;6323390;28;20381;-70
2023/02/05 04:48:48;;;;;;;1.13;0.88;;;;;;;-4.03;76.90;101294.22;6323325;28;20048;-71
2023/02/05 04:51:49;;;;;;;0.50;0.50;;;;;;;-4.12;77.28;101294.94;6323261;28;20123;-71
2023/02/05 04:54:50;;;;;;;0.60;0.57;;;;;;;-4.03;77.33;101294.22;6305070;28;20093;-70
2023/02/05 04:57:51;;;;;;;8.07;1.30;;;;;;;-3.97;77.10;101296.91;6323042;28;20059;-70
2023/02/05 05:00:52;;;;;;;0.30;0.30;;;;;;;-4.08;77.11;101309.44;6323224;28;20080;-70
2023/02/05 05:03:55;;;;;;;0.40;0.40;;;;;;;-4.20;77.44;101306.66;6323320;28;20044;-71
2023/02/05 05:06:56;;;;;;;1.90;0.60;;;;;;;-4.09;77.44;101314.50;6323010;28;20126;-71
2023/02/05 05:09:57;;;;;;;0.22;0.22;;;;;;;-4.24;77.68;101320.19;6296430;28;20080;-70
2023/02/05 05:13:00;;;;;;;0.52;0.52;;;;;;;-4.21;77.87;101321.91;6296556;28;20399;-71
2023/02/05 05:16:02;;;;;;;0.25;0.25;;;;;;;-4.22;77.28;101322.75;6297618;28;20044;-71
2023/02/05 05:19:03;;;;;;;1.90;1.13;;;;;;;-4.27;77.27;101325.19;6297557;28;20479;-70
2023/02/05 05:22:04;;;;;;;0.50;0.50;;;;;;;-4.26;77.34;101327.78;6296658;28;20292;-70
2023/02/05 05:25:05;;;;;;;0.40;0.40;;;;;;;-4.45;78.02;101328.22;6296177;28;20052;-71
2023/02/05 05:28:06;;;;;;;0.20;0.20;;;;;;;-4.41;77.80;101342.75;6297251;28;20048;-71
2023/02/05 05:31:18;;;;;;;0.50;0.50;;;;;;;-4.36;77.45;101346.28;6296228;28;20044;-70
2023/02/05 05:34:22;;;;;;;0.93;0.93;;;;;;;-4.46;77.99;101350.31;6297511;28;20045;-71
2023/02/05 05:37:23;;;;;;;0.20;0.20;;;;;;;-4.41;77.89;101337.66;6297401;28;20149;-70
2023/02/05 05:43:45;;;;;;;2.33;0.82;;;;;;;-4.61;78.28;101344.00;6297211;28;20380;-71
2023/02/05 05:46:46;;;;;;;4.80;0.95;;;;;;;-4.60;78.34;101355.94;6297145;28;20082;-71
2023/02/05 05:49:49;;;;;;;0.52;0.25;;;;;;;-4.80;78.89;101363.97;6295865;28;20049;-71
2023/02/05 05:52:51;;;;;;;0.85;0.82;;;;;;;-4.87;78.14;101365.53;6296025;28;20070;-71
2023/02/05 05:55:52;;;;;;;0.55;0.55;;;;;;;-4.79;78.94;101375.91;6295825;28;20040;-70
2023/02/05 05:58:53;;;;;;;0.77;0.57;;;;;;;-4.78;78.35;101379.31;6296643;28;20063;-70
2023/02/05 06:01:54;;;;;;;0.73;0.73;;;;;;;-4.79;79.07;101365.72;6297192;28;20044;-70
2023/02/05 06:04:54;;;;;;;0.68;0.68;;;;;;;-4.91;77.82;101381.56;6296552;28;20052;-71
2023/02/05 06:07:55;;;;;;;1.77;1.05;;;;;;;-4.78;78.24;101382.69;6299893;28;20048;-70
2023/02/05 06:10:59;;;;;;;3.00;1.42;;;;;;;-4.72;78.12;101382.84;6303785;28;20389;-70
2023/02/05 06:14:00;;;;;;;0.70;0.65;;;;;;;-4.70;78.04;101383.72;6321901;28;20494;-75
2023/02/05 06:17:01;;;;;;;1.98;0.95;;;;;;;-4.66;78.26;101393.16;6304501;28;20042;-75
2023/02/05 06:20:03;;;;;;;4.78;1.90;;;;;;;-4.64;77.78;101398.31;6322363;28;20044;-76
2023/02/05 06:23:03;;;;;;;0.52;0.52;;;;;;;-4.67;78.64;101400.81;6322424;28;20044;-75
2023/02/05 06:26:04;;;;;;;1.10;1.00;;;;;;;-4.61;78.78;101403.47;6321734;28;20464;-70
2023/02/05 06:29:08;;;;;;;1.20;1.10;;;;;;;-4.59;80.27;101403.50;6321896;28;20047;-75
2023/02/05 06:32:09;;;;;;;2.47;1.17;;;;;;;-4.55;80.73;101407.84;6322293;28;20040;-75
2023/02/05 06:35:09;;;;;;;0.40;0.40;;;;;;;-4.49;81.51;101407.97;6304277;28;20040;-75
2023/02/05 06:38:10;;;;;;;0.20;0.20;;;;;;;-4.28;81.33;101426.28;6304172;28;20555;-75
2023/02/05 06:41:11;;;;;;;0.57;0.57;;;;;;;-4.02;80.34;101430.22;6324414;28;20032;-75
2023/02/05 06:44:14;;;;;;;1.10;1.00;;;;;;;-3.94;79.25;101446.53;6308934;28;20051;-75
2023/02/05 06:47:15;;;;;;;0.73;0.73;;;;;;;-3.93;78.87;101449.13;6327141;28;20115;-75
2023/02/05 06:50:16;;;;;;;0.88;0.85;;;;;;;-4.05;79.67;101449.72;6309031;28;20048;-75
2023/02/05 06:53:17;;;;;;;0.77;0.77;;;;;;;-4.03;79.76;101462.50;6326929;28;20036;-75
2023/02/05 06:56:18;;;;;;;1.15;0.98;;;;;;;-3.88;79.76;101467.91;6308815;28;20048;-75
2023/02/05 06:59:19;;;;;;;0.90;0.85;;;;;;;-3.71;79.46;101469.94;6326732;28;20607;-75
2023/02/05 07:02:20;;;;;;;3.97;2.00;;;;;;;-3.70;78.72;101462.34;6326656;28;20050;-75
2023/02/05 07:05:21;;;;;;;2.22;1.83;;;;;;;-3.24;77.75;101464.91;6308357;28;20040;-71
2023/02/05 07:08:22;;;;;;;2.03;0.80;;;;;;;-3.13;75.85;101472.75;6325950;28;20056;-71
2023/02/05 07:11:24;;;;;;;1.88;0.60;;;;;;;-3.00;72.27;101479.81;6307542;28;20081;-71
2023/02/05 07:14:25;;;;;;;1.27;0.90;;;;;;;-2.99;70.70;101483.22;6325205;28;20562;-71
2023/02/05 07:17:26;;;;;;;3.35;2.47;;;;;;;-2.81;69.79;101475.88;6306927;28;20280;-71
2023/02/05 07:20:30;;;;;;;5.35;2.63;;;;;;;-2.59;69.24;101483.84;6324805;28;20127;-71
2023/02/05 07:23:33;;;;;;;2.63;1.95;;;;;;;-2.35;68.32;101493.63;6306775;28;20075;-71
2023/02/05 07:26:37;;;;;;;1.25;1.02;;;;;;;-2.49;68.47;101486.59;6324651;28;20043;-71
2023/02/05 07:29:38;;;;;;;1.77;1.50;;;;;;;-2.43;68.48;101485.81;6306017;28;20044;-71
2023/02/05 07:32:39;;;;;;;0.77;0.63;;;;;;;-2.64;68.28;101476.13;6323658;28;20044;-71
2023/02/05 07:35:42;;;;;;;2.05;1.23;;;;;;;-2.67;67.02;101473.53;6324321;28;20414;-72
2023/02/05 07:38:45;;;;;;;1.88;1.17;;;;;;;-2.65;67.94;101480.38;6325114;28;20047;-77
2023/02/05 07:41:46;;;;;;;5.65;1.50;;;;;;;-2.40;67.37;101469.69;6307667;28;20089;-77
2023/02/05 07:44:49;;;;;;;1.00;0.95;;;;;;;-2.12;66.92;101479.47;6325366;28;20036;-78
2023/02/05 07:47:49;;;;;;;2.95;1.23;;;;;;;-2.39;67.42;101473.94;6325248;28;20508;-78
2023/02/05 07:50:50;;;;;;;8.55;1.92;;;;;;;-2.23;67.37;101471.63;6323913;28;20044;-73
2023/02/05 07:53:51;;;;;;;1.08;1.02;;;;;;;-2.31;67.88;101483.44;6305926;28;20498;-71
2023/02/05 07:56:54;;;;;;;0.93;0.68;;;;;;;-2.07;67.19;101485.50;6323900;28;20488;-72
2023/02/05 07:59:54;;;;;;;0.73;0.73;;;;;;;-2.89;69.79;101479.97;6305886;28;20044;-78
2023/02/05 08:02:55;;;;;;;0.95;0.82;;;;;;;-2.40;69.43;101487.59;6306480;28;20043;-72
2023/02/05 08:06:02;;;;;;;0.40;0.40;;;;;;;-2.23;69.24;101486.97;6305611;28;20062;-72
2023/02/05 08:09:03;;;;;;;0.88;0.70;;;;;;;-1.71;68.36;101481.72;6305624;28;20052;-72
2023/02/05 08:12:04;;;;;;;0.88;0.88;;;;;;;-1.56;68.49;101490.41;6323565;28;20040;-73
2023/02/05 08:15:05;;;;;;;0.93;0.77;;;;;;;-1.42;68.10;101481.19;6305488;28;20043;-72
2023/02/05 08:18:06;;;;;;;0.93;0.77;;;;;;;-1.43;68.23;101476.91;6323811;28;20036;-78
2023/02/05 08:21:07;;;;;;;0.65;0.65;;;;;;;-1.44;68.35;101473.50;6324121;28;20083;-78
2023/02/05 08:24:10;;;;;;;0.52;0.40;;;;;;;-1.19;68.59;101465.19;6306096;28;20032;-78
2023/02/05 08:27:11;;;;;;;0.60;0.43;;;;;;;-1.29;68.85;101461.69;6324229;28;20067;-78
2023/02/05 08:43:23;;;;;;;1.98;1.30;;;;;;;-1.04;65.49;101460.22;6293075;28;20386;-78
2023/02/05 08:46:25;;;;;;;2.83;0.90;;;;;;;-0.97;66.90;101471.38;6293192;28;20112;-78
2023/02/05 08:49:26;;;;;;;0.90;0.80;;;;;;;-0.76;66.48;101474.16;6292979;28;20051;-78
2023/02/05 08:52:30;;;;;;;1.20;0.95;;;;;;;-0.71;65.04;101474.19;6291705;28;20492;-77
2023/02/05 08:55:30;;;;;;;0.75;0.75;;;;;;;-0.79;65.56;101474.09;6292841;28;20037;-78
2023/02/05 08:58:34;;;;;;;1.45;1.05;;;;;;;-0.90;64.31;101485.97;6291496;28;20537;-78
2023/02/05 09:01:36;;;;;;;2.15;0.95;;;;;;;-0.78;63.53;101482.66;6292753;28;20041;-78
2023/02/05 09:04:39;;;;;;;1.75;1.05;;;;;;;-0.72;63.71;101480.13;6292815;28;20041;-78
2023/02/05 09:07:41;;;;;;;0.32;0.32;;;;;;;-0.43;62.48;101490.63;6292559;28;20123;-78
2023/02/05 09:10:43;;;;;;;1.60;0.80;;;;;;;-0.29;61.18;101480.44;6292401;28;20053;-78
2023/02/05 09:13:44;;;;;;;0.73;0.60;;;;;;;-0.32;61.90;101493.28;6292429;28;20065;-78
2023/02/05 09:16:45;;;;;;;2.42;1.45;;;;;;;-0.39;62.17;101494.94;6291168;28;20047;-78
2023/02/05 09:19:48;;;;;;;1.65;1.30;;;;;;;-0.32;61.26;101476.16;6292176;28;20116;-78
2023/02/05 09:22:52;;;;;;;0.57;0.50;;;;;;;-0.26;61.29;101485.63;6292120;28;20052;-78
2023/02/05 09:25:54;;;;;;;0.20;0.20;;;;;;;-0.54;61.13;101479.44;6290962;28;20496;-78
2023/02/05 09:28:54;;;;;;;0.57;0.52;;;;;;;-0.64;59.85;101489.63;6291857;28;20045;-78
2023/02/05 09:31:58;;;;;;;1.17;0.90;;;;;;;-0.43;59.60;101488.94;6292001;28;20045;-77
2023/02/05 09:34:58;;;;;;;0.40;0.40;;;;;;;-0.31;59.57;101487.28;6291734;28;20515;-77
2023/02/05 09:38:02;;;;;;;1.58;1.05;;;;;;;0.18;59.54;101495.25;6290425;28;20124;-76
2023/02/05 09:41:29;;;;;;;6.50;2.03;;;;;;;-0.07;57.93;101492.56;6290219;28;20045;-76
2023/02/05 09:44:53;;;;;;;2.67;1.25;;;;;;;0.19;60.58;101497.00;6270865;28;20061;-77
2023/02/05 09:48:03;;;;;;;0.85;0.85;;;;;;;0.01;59.25;101512.28;6275148;28;20044;-77
2023/02/05 09:51:08;;;;;;;1.70;0.82;;;;;;;0.03;58.69;101502.91;6274055;28;20041;-77
2023/02/05 09:54:17;;;;;;;0.30;0.30;;;;;;;-0.02;57.64;101495.19;6273795;28;20041;-77
2023/02/05 09:57:33;;;;;;;0.50;0.50;;;;;;;0.37;57.14;101489.38;6275001;28;20041;-77
2023/02/05 10:01:02;;;;;;;2.50;1.05;;;;;;;0.62;56.49;101491.16;6274725;28;20041;-77
2023/02/05 10:04:05;;;;;;;0.50;0.50;;;;;;;-0.10;56.37;101492.56;6273557;28;20408;-77
2023/02/05 10:07:30;;;;;;;;;;;;;;;0.52;56.14;101490.28;6275214;28;20060;-77
2023/02/05 10:10:46;;;;;;;0.30;0.30;;;;;;;0.37;54.81;101480.78;6273400;28;20343;-76
2023/02/05 10:14:10;;;;;;;0.55;0.50;;;;;;;0.83;54.99;101486.09;6274791;28;20072;-77
2023/02/05 10:17:38;;;;;;;0.38;0.35;;;;;;;0.52;53.78;101492.84;6273260;28;20037;-77
2023/02/05 10:21:08;;;;;;;0.93;0.70;;;;;;;0.60;54.88;101493.75;6273116;28;20507;-77
2023/02/05 10:25:20;;;;;;;1.00;0.90;;;;;;;0.67;54.45;101479.19;6274368;28;20037;-78
2023/02/05 10:28:21;;;;;;;4.07;1.35;;;;;;;0.52;55.32;101496.28;6253071;28;20140;-78
2023/02/05 10:31:42;;;;;;;2.47;1.42;;;;;;;0.57;54.19;101496.28;6272940;28;20461;-78
2023/02/05 10:34:55;;;;;;;1.67;1.20;;;;;;;0.69;52.98;101491.19;6274209;28;20048;-78
2023/02/05 10:37:56;;;;;;;1.45;0.82;;;;;;;0.29;54.00;101490.16;6273989;28;20040;-78
2023/02/05 10:41:03;;;;;;;1.67;0.93;;;;;;;-0.07;54.47;101489.16;6272375;28;20045;-78
2023/02/05 10:44:33;;;;;;;2.85;0.98;;;;;;;0.48;54.94;101483.41;6272745;28;20099;-79
2023/02/05 10:47:34;;;;;;;3.33;1.02;;;;;;;0.16;53.79;101491.84;6272715;28;20049;-78
2023/02/05 10:50:59;;;;;;;1.30;0.98;;;;;;;-0.21;55.99;101494.19;6272586;28;20049;-78
2023/02/05 10:54:00;;;;;;;1.03;0.80;;;;;;;0.52;55.34;101490.28;6272693;28;20041;-76
2023/02/05 10:57:01;;;;;;;1.17;1.10;;;;;;;0.14;55.05;101476.41;6272392;28;20041;-79
2023/02/05 11:00:18;;;;;;;3.00;0.60;;;;;;;0.38;54.22;101485.09;6272167;28;20489;-76
2023/02/05 11:03:21;;;;;;;0.30;0.30;;;;;;;0.34;54.05;101489.34;6272254;28;20049;-76
2023/02/05 11:06:24;;;;;;;1.08;0.90;;;;;;;0.71;52.10;101476.63;6272211;28;20041;-77
2023/02/05 11:09:27;;;;;;;1.80;0.47;;;;;;;1.10;52.91;101484.41;6271928;28;20488;-77
2023/02/05 11:12:30;;;;;;;1.30;1.20;;;;;;;1.39;52.36;101458.69;6273339;28;20138;-78
2023/02/05 11:15:32;;;;;;;0.98;0.68;;;;;;;1.91;52.62;101478.34;6271939;28;20052;-74
2023/02/05 11:18:44;;;;;;;1.25;1.15;;;;;;;1.87;52.51;101468.91;6271880;28;20472;-78
2023/02/05 11:22:06;;;;;;;0.80;0.60;;;;;;;1.79;51.50;101476.63;6271693;28;20045;-78
2023/02/05 11:25:17;;;;;;;1.38;0.80;;;;;;;1.97;52.21;101476.59;6272965;28;20036;-78
2023/02/05 11:28:22;;;;;;;1.55;0.82;;;;;;;0.96;53.29;101454.38;6272852;28;20128;-77
2023/02/05 11:31:26;;;;;;;1.17;0.88;;;;;;;0.94;55.67;101468.94;6271563;28;20049;-77
2023/02/05 11:34:27;;;;;;;0.40;0.40;;;;;;;0.62;55.07;101456.06;6271570;28;20479;-76
2023/02/05 11:37:28;;;;;;;0.77;0.77;;;;;;;-0.11;54.87;101472.03;6271502;28;20102;-76
2023/02/05 11:40:31;;;;;;;0.70;0.63;;;;;;;0.28;54.19;101480.78;6271287;28;20450;-77
2023/02/05 11:43:34;;;;;;;;;;;;;;;0.21;55.13;101487.59;6271604;28;20053;-77
2023/02/05 11:46:42;;;;;;;0.60;0.60;;;;;;;0.55;55.27;101473.16;6271209;28;20332;-77
2023/02/05 11:49:49;;;;;;;0.40;0.35;;;;;;;0.44;52.97;101477.41;6272369;28;20250;-77
2023/02/05 11:52:54;;;;;;;1.13;0.90;;;;;;;0.31;54.55;101485.91;6271201;28;20496;-76
2023/02/05 11:56:03;;;;;;;2.88;1.33;;;;;;;0.29;54.59;101495.31;6271051;28;20037;-77
2023/02/05 11:59:21;;;;;;;1.42;0.88;;;;;;;0.04;55.39;101487.47;6270966;28;20049;-77
2023/02/05 12:02:28;;;;;;;0.50;0.50;;;;;;;0.60;55.21;101473.19;6270850;28;20409;-77
2023/02/05 12:05:34;;;;;;;0.77;0.77;;;;;;;1.17;53.45;101488.69;6270695;28;20041;-77
2023/02/05 12:08:47;;;;;;;0.57;0.52;;;;;;;1.49;53.53;101486.13;6271968;28;20041;-77
2023/02/05 12:12:02;;;;;;;0.85;0.85;;;;;;;1.71;52.68;101478.38;6271891;28;20049;-77
2023/02/05 12:15:42;;;;;;;1.83;0.93;;;;;;;1.10;54.77;101481.84;6270733;28;20481;-78
2023/02/05 12:19:02;;;;;;;0.57;0.57;;;;;;;0.91;54.59;101466.38;6250330;28;20057;-78
2023/02/05 12:22:27;;;;;;;1.23;0.88;;;;;;;0.42;54.97;101478.25;6271719;28;20377;-78
2023/02/05 12:25:35;;;;;;;0.38;0.38;;;;;;;0.92;55.12;101480.94;6271806;28;20094;-77
2023/02/05 12:28:51;;;;;;;0.40;0.40;;;;;;;0.66;54.87;101477.47;6271764;28;20401;-77
2023/02/05 12:32:23;;;;;;;0.50;0.40;;;;;;;0.36;56.01;101469.66;6271712;28;20458;-77
2023/02/05 12:35:45;;;;;;;0.73;0.73;;;;;;;0.08;56.92;101478.94;6270535;28;20041;-77
2023/02/05 12:38:52;;;;;;;0.73;0.57;;;;;;;0.16;57.34;101477.28;6271600;28;20041;-77
2023/02/05 12:42:05;;;;;;;0.57;0.57;;;;;;;0.49;56.85;101477.41;6271254;28;20103;-76
2023/02/05 12:45:30;;;;;;;0.90;0.82;;;;;;;0.12;58.01;101484.97;6270337;28;20073;-79
2023/02/05 12:48:45;;;;;;;2.00;0.60;;;;;;;0.07;57.50;101478.97;6268852;28;20041;-77
2023/02/05 12:52:24;;;;;;;2.30;1.45;;;;;;;0.20;56.74;101485.84;6257061;28;20064;-76
2023/02/05 12:55:48;;;;;;;0.55;0.50;;;;;;;0.08;56.98;101488.38;6267991;28;20052;-78
2023/02/05 12:59:09;;;;;;;0.50;0.50;;;;;;;0.18;56.53;101472.16;6263179;28;20057;-78
2023/02/05 13:02:15;;;;;;;1.52;1.38;;;;;;;0.07;57.64;101466.13;6270038;28;20037;-78
2023/02/05 13:05:31;;;;;;;0.40;0.40;;;;;;;-0.05;57.95;101470.34;6270988;28;20049;-78
2023/02/05 13:08:57;;;;;;;0.95;0.77;;;;;;;-0.08;58.36;101464.34;6269296;28;20179;-76
2023/02/05 13:12:10;;;;;;;1.30;1.20;;;;;;;-0.22;58.03;101465.13;6253798;28;20437;-77
2023/02/05 13:15:31;;;;;;;1.05;0.95;;;;;;;-0.63;58.31;101449.47;6259065;28;20099;-76
2023/02/05 13:18:37;;;;;;;0.57;0.57;;;;;;;-0.96;58.90;101453.47;6258540;28;20037;-77
2023/02/05 13:28:39;;;;;;;2.63;1.48;;;;;;;-1.16;61.85;101445.59;6250810;28;20044;-76
2023/02/05 13:31:47;;;;;;;3.38;1.25;;;;;;;-1.32;61.61;101443.72;6249616;28;20073;-78
2023/02/05 13:34:53;;;;;;;0.47;0.38;;;;;;;-1.17;60.31;101456.69;6260353;28;20041;-76
2023/02/05 13:38:33;;;;;;;1.38;0.73;;;;;;;-1.33;59.09;101460.81;6266437;28;20047;-76
2023/02/05 13:42:03;;;;;;;0.47;0.45;;;;;;;-0.88;57.16;101458.66;6269135;28;20045;-76
2023/02/05 13:45:31;;;;;;;2.97;0.43;;;;;;;-0.12;56.65;101478.88;6258344;28;20612;-76
2023/02/05 13:48:44;;;;;;;4.20;0.77;;;;;;;0.14;56.15;101478.13;6250087;28;20092;-76
2023/02/05 13:52:19;;;;;;;4.88;2.53;;;;;;;-0.08;55.15;101477.19;6265168;28;20049;-76
2023/02/05 13:55:41;;;;;;;3.40;2.25;;;;;;;-0.03;55.04;101473.78;6273200;28;20497;-77
2023/02/05 13:58:49;;;;;;;0.73;0.73;;;;;;;0.02;56.09;101475.50;6274600;28;20124;-74
2023/02/05 14:02:00;;;;;;;1.13;0.88;;;;;;;-0.18;56.42;101463.44;6274271;28;20527;-77
2023/02/05 14:05:03;;;;;;;4.15;1.27;;;;;;;-0.42;56.01;101467.53;6273201;28;20048;-77
2023/02/05 14:08:05;;;;;;;0.88;0.55;;;;;;;-0.89;57.60;101449.25;6273044;28;20044;-74
2023/02/05 14:11:06;;;;;;;0.22;0.22;;;;;;;-1.07;58.24;101470.44;6266819;28;20045;-77
2023/02/05 14:14:29;;;;;;;0.50;0.50;;;;;;;-1.11;58.69;101463.56;6252437;28;20543;-75
2023/02/05 14:17:52;;;;;;;0.73;0.73;;;;;;;-1.19;59.77;101485.69;6248257;28;20045;-74
2023/02/05 14:20:53;;;;;;;1.17;1.00;;;;;;;-1.58;60.01;101482.72;6247900;28;20048;-77
2023/02/05 14:23:58;;;;;;;0.40;0.40;;;;;;;-1.53;60.50;101491.28;6248123;28;20045;-77
2023/02/05 14:26:59;;;;;;;0.90;0.70;;;;;;;-1.77;61.17;101491.00;6249310;28;20046;-77
2023/02/05 14:30:31;;;;;;;0.52;0.52;;;;;;;-1.81;61.43;101487.56;6252470;28;20401;-76
2023/02/05 14:33:36;;;;;;;3.85;2.08;;;;;;;-1.72;61.41;101490.22;6256503;28;20041;-77
2023/02/05 14:36:40;;;;;;;0.80;0.80;;;;;;;-1.67;62.27;101491.16;6247813;28;20073;-77
2023/02/05 14:39:44;;;;;;;1.27;1.08;;;;;;;-1.77;62.27;101484.19;6247601;28;20037;-76
2023/02/05 14:42:45;;;;;;;0.75;0.75;;;;;;;-1.74;61.63;101481.66;6248553;28;20524;-74
2023/02/05 14:45:50;;;;;;;2.63;2.42;;;;;;;-1.69;62.91;101495.41;6247480;28;20515;-74
2023/02/05 14:48:55;;;;;;;2.58;1.50;;;;;;;-1.83;63.33;101479.00;6248582;28;20037;-74
2023/02/05 14:52:07;;;;;;;1.60;1.05;;;;;;;-1.73;62.87;101477.41;6253562;28;20041;-80
2023/02/05 14:55:14;;;;;;;1.60;0.77;;;;;;;-1.75;62.99;101482.53;6266261;28;20099;-79
2023/02/05 14:58:29;;;;;;;1.35;1.23;;;;;;;-1.93;63.53;101477.16;6271997;28;20037;-80
2023/02/05 15:01:34;;;;;;;1.23;1.13;;;;;;;-1.97;63.52;101483.09;6272886;28;20045;-80